createdAt,value
2022-07-28T00:00:10.316Z,1.10
2022-07-28T00:02:37.317Z,1.77
2022-07-28T00:05:05.572Z,1.13
2022-07-28T00:07:32.495Z,1.65
2022-07-28T00:10:00.741Z,1.48
2022-07-28T00:12:28.233Z,1.10
2022-07-28T00:14:55.514Z,1.40
2022-07-28T00:17:22.494Z,1.25
2022-07-28T00:19:50.655Z,1.13
2022-07-28T00:22:18.525Z,1.20
2022-07-28T00:24:45.580Z,1.45
2022-07-28T00:27:13.759Z,1.25
2022-07-28T00:29:49.288Z,1.00
2022-07-28T00:32:17.858Z,1.10
2022-07-28T00:34:45.112Z,0.80
2022-07-28T00:37:13.838Z,0.90
2022-07-28T00:39:42.932Z,0.98
2022-07-28T00:42:11.179Z,0.82
2022-07-28T00:44:41.795Z,1.00
2022-07-28T00:47:09.272Z,0.80
2022-07-28T00:49:37.716Z,0.60
2022-07-28T00:52:06.878Z,0.73
2022-07-28T00:54:34.331Z,0.98
2022-07-28T00:57:01.466Z,0.82
2022-07-28T00:59:28.409Z,1.00
2022-07-28T01:01:56.352Z,1.45
2022-07-28T01:04:25.049Z,1.02
2022-07-28T01:07:43.690Z,1.20
2022-07-28T01:10:26.139Z,1.00
2022-07-28T01:13:04.552Z,0.82
2022-07-28T01:15:38.555Z,0.93
2022-07-28T01:18:23.330Z,1.02
2022-07-28T01:21:12.975Z,0.82
2022-07-28T01:24:08.320Z,1.13
2022-07-28T01:26:53.585Z,1.10
2022-07-28T01:30:01.590Z,1.10
2022-07-28T01:32:46.679Z,0.75
2022-07-28T01:35:21.084Z,0.80
2022-07-28T01:37:55.097Z,1.00
2022-07-28T01:40:26.490Z,0.90
2022-07-28T01:42:59.464Z,1.17
2022-07-28T01:45:27.590Z,1.13
2022-07-28T01:47:59.140Z,1.30
2022-07-28T01:50:28.492Z,1.20
2022-07-28T01:52:57.036Z,1.20
2022-07-28T01:55:25.883Z,1.10
2022-07-28T01:57:57.200Z,1.60
2022-07-28T02:00:26.189Z,1.02
2022-07-28T02:02:56.713Z,1.35
2022-07-28T02:05:25.345Z,1.17
2022-07-28T02:07:55.112Z,1.25
2022-07-28T02:10:22.504Z,0.90
2022-07-28T02:12:51.727Z,1.05
2022-07-28T02:15:21.298Z,1.50
2022-07-28T02:17:49.962Z,1.02
2022-07-28T02:20:18.973Z,1.08
2022-07-28T02:22:51.794Z,1.30
2022-07-28T02:25:20.633Z,1.15
2022-07-28T02:27:58.606Z,0.98
2022-07-28T02:30:50.882Z,1.33
2022-07-28T02:33:28.194Z,1.10
2022-07-28T02:36:31.951Z,0.73
2022-07-28T02:39:07.379Z,1.00
2022-07-28T02:41:40.157Z,0.80
2022-07-28T02:44:16.618Z,1.42
2022-07-28T02:46:48.400Z,1.33
2022-07-28T02:49:24.051Z,1.55
2022-07-28T02:54:20.870Z,1.23
2022-07-28T02:56:53.876Z,1.02
2022-07-28T02:59:22.480Z,1.10
2022-07-28T03:01:51.036Z,1.25
2022-07-28T03:04:38.977Z,1.00
2022-07-28T03:07:07.056Z,1.00
2022-07-28T03:09:42.723Z,0.90
2022-07-28T03:14:37.132Z,1.02
2022-07-28T03:17:05.294Z,1.27
2022-07-28T03:19:32.759Z,1.33
2022-07-28T03:21:59.868Z,1.27
2022-07-28T03:24:31.720Z,0.90
2022-07-28T03:27:27.499Z,1.83
2022-07-28T03:30:04.486Z,1.20
2022-07-28T03:32:35.886Z,1.20
2022-07-28T03:35:03.742Z,1.40
2022-07-28T03:37:42.430Z,1.30
2022-07-28T03:40:12.218Z,1.30
2022-07-28T03:42:41.782Z,1.45
2022-07-28T03:45:09.275Z,1.05
2022-07-28T03:47:36.226Z,1.33
2022-07-28T03:50:03.524Z,1.75
2022-07-28T03:52:30.475Z,1.40
2022-07-28T03:54:57.413Z,1.40
2022-07-28T03:57:24.616Z,1.05
2022-07-28T03:59:52.273Z,1.33
2022-07-28T04:02:19.596Z,1.10
2022-07-28T04:04:46.933Z,1.73
2022-07-28T04:07:13.941Z,1.30
2022-07-28T04:09:40.903Z,1.38
2022-07-28T04:12:08.338Z,1.35
2022-07-28T04:14:35.245Z,1.20
2022-07-28T04:17:02.250Z,1.08
2022-07-28T04:19:29.179Z,0.88
2022-07-28T04:21:56.292Z,1.10
2022-07-28T04:24:23.458Z,1.10
2022-07-28T04:26:50.438Z,0.93
2022-07-28T04:29:23.442Z,1.38
2022-07-28T04:31:54.263Z,1.95
2022-07-28T04:34:21.976Z,1.88
2022-07-28T04:36:48.978Z,2.05
2022-07-28T04:39:16.248Z,1.85
2022-07-28T04:41:43.139Z,1.92
2022-07-28T04:44:12.106Z,1.80
2022-07-28T04:46:39.597Z,2.13
2022-07-28T04:49:06.767Z,1.42
2022-07-28T04:51:33.771Z,1.40
2022-07-28T04:54:00.702Z,1.73
2022-07-28T04:56:27.700Z,1.17
2022-07-28T04:58:54.615Z,1.42
2022-07-28T05:01:21.884Z,1.13
2022-07-28T05:03:49.060Z,1.27
2022-07-28T05:06:16.380Z,1.45
2022-07-28T05:08:43.264Z,1.20
2022-07-28T05:11:10.146Z,1.58
2022-07-28T05:13:37.040Z,1.40
2022-07-28T05:16:04.176Z,1.77
2022-07-28T05:18:31.177Z,1.30
2022-07-28T05:20:58.139Z,1.98
2022-07-28T05:23:25.486Z,2.17
2022-07-28T05:25:53.497Z,1.30
2022-07-28T05:28:20.755Z,2.20
2022-07-28T05:30:47.688Z,3.03
2022-07-28T05:33:17.866Z,1.65
2022-07-28T05:35:59.516Z,2.33
2022-07-28T05:38:28.169Z,2.22
2022-07-28T05:40:55.344Z,2.53
2022-07-28T05:43:22.454Z,2.47
2022-07-28T05:45:49.624Z,2.28
2022-07-28T05:48:20.536Z,2.50
2022-07-28T05:50:49.573Z,2.33
2022-07-28T05:53:17.569Z,2.28
2022-07-28T05:55:56.427Z,2.75
2022-07-28T05:58:28.203Z,2.65
2022-07-28T06:01:02.434Z,2.90
2022-07-28T06:03:33.116Z,2.05
2022-07-28T06:06:15.653Z,1.95
2022-07-28T06:08:45.609Z,2.75
2022-07-28T06:11:18.018Z,2.38
2022-07-28T06:13:51.165Z,2.30
2022-07-28T06:16:20.555Z,2.13
2022-07-28T06:18:47.690Z,2.15
2022-07-28T06:21:14.928Z,3.75
2022-07-28T06:23:42.078Z,1.85
2022-07-28T06:26:09.001Z,1.42
2022-07-28T06:28:37.015Z,2.75
2022-07-28T06:31:03.950Z,1.42
2022-07-28T06:33:30.892Z,1.60
2022-07-28T06:35:58.331Z,1.60
2022-07-28T06:38:25.721Z,1.67
2022-07-28T06:40:52.728Z,1.35
2022-07-28T06:43:20.112Z,1.40
2022-07-28T06:45:47.103Z,1.90
2022-07-28T06:48:14.112Z,1.70
2022-07-28T06:50:42.709Z,1.35
2022-07-28T06:53:09.781Z,1.73
2022-07-28T06:55:37.920Z,1.42
2022-07-28T06:58:05.178Z,1.05
2022-07-28T07:00:32.614Z,1.05
2022-07-28T07:03:00.768Z,1.00
2022-07-28T07:05:32.077Z,1.27
2022-07-28T07:07:59.616Z,0.88
2022-07-28T07:10:26.908Z,1.20
2022-07-28T07:12:53.794Z,0.88
2022-07-28T07:15:20.705Z,1.13
2022-07-28T07:17:47.639Z,0.77
2022-07-28T07:20:16.563Z,2.17
2022-07-28T07:22:48.206Z,0.70
2022-07-28T07:25:18.270Z,0.50
2022-07-28T07:27:46.312Z,0.52
2022-07-28T07:30:14.728Z,1.00
2022-07-28T07:32:42.182Z,0.55
2022-07-28T07:35:09.339Z,0.82
2022-07-28T07:37:36.498Z,0.60
2022-07-28T07:40:06.117Z,0.60
2022-07-28T07:42:33.044Z,0.30
2022-07-28T07:44:59.973Z,0.85
2022-07-28T07:47:26.957Z,0.40
2022-07-28T07:49:54.123Z,0.40
2022-07-28T07:52:21.161Z,0.50
2022-07-28T07:54:48.109Z,0.47
2022-07-28T07:57:15.018Z,0.73
2022-07-28T07:59:41.984Z,0.47
2022-07-28T08:02:09.976Z,0.80
2022-07-28T08:04:37.726Z,0.60
2022-07-28T08:07:06.774Z,0.50
2022-07-28T08:09:34.605Z,0.55
2022-07-28T08:12:02.067Z,1.00
2022-07-28T08:14:29.178Z,0.60
2022-07-28T08:16:56.901Z,0.40
2022-07-28T08:19:27.051Z,0.40
2022-07-28T08:21:55.531Z,0.43
2022-07-28T08:24:32.308Z,0.57
2022-07-28T08:27:02.233Z,0.40
2022-07-28T08:29:30.034Z,0.40
2022-07-28T08:31:57.284Z,0.93
2022-07-28T08:34:31.626Z,0.50
2022-07-28T08:37:02.701Z,0.55
2022-07-28T08:39:33.757Z,0.38
2022-07-28T08:42:06.756Z,0.40
2022-07-28T08:44:57.709Z,0.30
2022-07-28T08:47:35.643Z,0.55
2022-07-28T08:50:08.507Z,0.32
2022-07-28T08:52:37.885Z,0.95
2022-07-28T08:55:09.152Z,0.35
2022-07-28T08:57:46.838Z,0.30
2022-07-28T09:00:14.386Z,0.38
2022-07-28T09:02:52.341Z,0.40
2022-07-28T09:05:23.864Z,0.50
2022-07-28T09:07:54.828Z,0.32
2022-07-28T09:10:23.298Z,0.40
2022-07-28T09:12:50.640Z,1.13
2022-07-28T09:15:17.720Z,0.70
2022-07-28T09:17:44.709Z,0.60
2022-07-28T09:20:12.937Z,0.82
2022-07-28T09:23:42.756Z,0.28
2022-07-28T09:26:10.912Z,0.43
2022-07-28T09:28:58.894Z,0.82
2022-07-28T09:31:28.897Z,0.40
2022-07-28T09:34:06.114Z,0.40
2022-07-28T09:36:41.413Z,0.50
2022-07-28T09:41:53.273Z,0.30
2022-07-28T09:44:22.176Z,0.30
2022-07-28T09:46:49.686Z,0.30
2022-07-28T09:49:17.365Z,0.50
2022-07-28T09:52:03.562Z,0.47
2022-07-28T09:54:30.692Z,1.00
2022-07-28T09:56:57.960Z,0.40
2022-07-28T09:59:25.935Z,0.50
2022-07-28T10:02:02.095Z,1.17
2022-07-28T10:04:35.719Z,0.50
2022-07-28T10:07:15.760Z,0.35
2022-07-28T10:09:43.623Z,0.55
2022-07-28T10:12:38.169Z,0.40
2022-07-28T10:15:38.603Z,0.70
2022-07-28T10:18:13.785Z,0.50
2022-07-28T10:20:41.075Z,0.38
2022-07-28T10:23:13.937Z,0.38
2022-07-28T10:25:44.337Z,0.40
2022-07-28T10:28:16.992Z,0.38
2022-07-28T10:30:45.045Z,0.85
2022-07-28T10:33:16.055Z,0.40
2022-07-28T10:35:54.480Z,0.30
2022-07-28T10:38:26.954Z,0.40
2022-07-28T10:40:56.826Z,0.20
2022-07-28T10:43:26.672Z,0.50
2022-07-28T10:46:14.178Z,0.20
2022-07-28T10:48:43.496Z,0.50
2022-07-28T10:51:11.694Z,0.30
2022-07-28T10:53:54.562Z,0.40
2022-07-28T10:56:59.028Z,0.30
2022-07-28T10:59:55.813Z,0.55
2022-07-28T11:02:44.517Z,0.40
2022-07-28T11:05:35.348Z,0.28
2022-07-28T11:08:18.349Z,0.43
2022-07-28T11:10:55.182Z,0.30
2022-07-28T11:13:33.372Z,0.70
2022-07-28T11:16:15.768Z,0.30
2022-07-28T11:19:36.587Z,0.40
2022-07-28T11:22:18.383Z,0.30
2022-07-28T11:24:58.321Z,0.30
2022-07-28T11:27:45.285Z,0.70
2022-07-28T11:30:33.807Z,0.40
2022-07-28T11:33:06.261Z,0.50
2022-07-28T11:35:39.141Z,0.30
2022-07-28T11:38:06.370Z,0.70
2022-07-28T11:40:41.653Z,0.40
2022-07-28T11:46:10.170Z,0.50
2022-07-28T11:48:45.287Z,0.50
2022-07-28T11:51:13.991Z,0.40
2022-07-28T11:53:43.446Z,0.63
2022-07-28T11:56:37.765Z,0.70
2022-07-28T11:59:07.566Z,0.35
2022-07-28T12:01:36.931Z,0.40
2022-07-28T12:04:13.478Z,0.30
2022-07-28T12:06:43.158Z,0.30
2022-07-28T12:09:13.134Z,0.40
2022-07-28T12:11:41.972Z,0.40
2022-07-28T12:14:15.357Z,0.20
2022-07-28T12:16:50.527Z,0.30
2022-07-28T12:19:20.238Z,0.47
2022-07-28T12:21:51.062Z,0.40
2022-07-28T12:24:45.928Z,0.30
2022-07-28T12:27:15.211Z,0.27
2022-07-28T12:29:43.665Z,0.20
2022-07-28T12:32:10.886Z,0.88
2022-07-28T12:34:40.520Z,0.43
2022-07-28T12:37:12.579Z,0.30
2022-07-28T12:39:42.805Z,0.50
2022-07-28T12:42:12.287Z,0.50
2022-07-28T12:44:42.485Z,0.32
2022-07-28T12:47:12.921Z,0.40
2022-07-28T12:49:42.820Z,0.40
2022-07-28T12:52:21.592Z,0.50
2022-07-28T12:54:54.179Z,0.43
2022-07-28T12:57:48.670Z,0.50
2022-07-28T13:00:25.162Z,0.40
2022-07-28T13:02:56.503Z,0.57
2022-07-28T13:05:57.558Z,0.30
2022-07-28T13:08:27.444Z,0.32
2022-07-28T13:10:58.687Z,1.42
2022-07-28T13:13:27.203Z,0.52
2022-07-28T13:16:16.434Z,0.73
2022-07-28T13:18:47.264Z,0.38
2022-07-28T13:21:15.860Z,0.30
2022-07-28T13:23:45.018Z,0.30
2022-07-28T13:26:12.124Z,0.30
2022-07-28T13:28:39.614Z,0.40
2022-07-28T13:31:06.678Z,0.30
2022-07-28T13:33:33.794Z,0.30
2022-07-28T13:36:01.201Z,0.40
2022-07-28T13:38:28.208Z,0.40
2022-07-28T13:40:56.878Z,0.28
2022-07-28T13:43:23.853Z,0.85
2022-07-28T13:46:03.615Z,0.30
2022-07-28T13:48:32.901Z,0.30
2022-07-28T13:51:00.929Z,0.40
2022-07-28T13:53:28.812Z,0.60
2022-07-28T13:55:55.745Z,0.30
2022-07-28T13:58:22.876Z,0.40
2022-07-28T14:00:50.012Z,0.45
2022-07-28T14:03:17.203Z,0.30
2022-07-28T14:05:44.423Z,0.70
2022-07-28T14:08:12.571Z,0.52
2022-07-28T14:10:39.700Z,0.38
2022-07-28T14:13:07.117Z,0.45
2022-07-28T14:15:34.048Z,0.57
2022-07-28T14:18:01.011Z,0.50
2022-07-28T14:20:28.158Z,0.20
2022-07-28T14:22:55.267Z,1.52
2022-07-28T14:25:22.484Z,0.50
2022-07-28T14:27:52.776Z,0.98
2022-07-28T14:30:21.358Z,0.70
2022-07-28T14:32:49.526Z,0.40
2022-07-28T14:35:16.818Z,0.70
2022-07-28T14:38:35.162Z,0.60
2022-07-28T14:40:32.084Z,0.30
2022-07-28T14:42:59.977Z,0.60
2022-07-28T14:45:29.327Z,0.50
2022-07-28T14:47:56.263Z,0.40
2022-07-28T14:50:24.101Z,0.38
2022-07-28T14:52:51.322Z,0.60
2022-07-28T14:55:18.914Z,0.60
2022-07-28T14:57:53.989Z,0.50
2022-07-28T15:00:24.441Z,0.65
2022-07-28T15:02:53.045Z,0.32
2022-07-28T15:05:21.852Z,0.40
2022-07-28T15:07:51.896Z,0.40
2022-07-28T15:10:20.523Z,0.60
2022-07-28T15:12:47.934Z,0.50
2022-07-28T15:15:16.016Z,0.20
2022-07-28T15:17:43.490Z,0.40
2022-07-28T15:20:11.493Z,0.40
2022-07-28T15:22:38.520Z,1.13
2022-07-28T15:25:06.263Z,0.50
2022-07-28T15:27:34.018Z,0.60
2022-07-28T15:30:02.803Z,0.43
2022-07-28T15:32:31.385Z,0.77
2022-07-28T15:35:01.308Z,0.35
2022-07-28T15:37:28.415Z,0.47
2022-07-28T15:39:55.347Z,0.77
2022-07-28T15:42:23.150Z,0.50
2022-07-28T15:44:51.851Z,0.60
2022-07-28T15:47:18.993Z,0.50
2022-07-28T15:49:46.312Z,0.38
2022-07-28T15:52:14.704Z,0.88
2022-07-28T15:54:41.819Z,0.82
2022-07-28T15:57:08.838Z,0.40
2022-07-28T15:59:49.941Z,0.73
2022-07-28T16:02:19.150Z,0.40
2022-07-28T16:04:53.147Z,0.77
2022-07-28T16:07:23.552Z,0.50
2022-07-28T16:09:54.181Z,0.98
2022-07-28T16:12:25.278Z,0.30
2022-07-28T16:14:56.665Z,0.57
2022-07-28T16:17:24.238Z,0.85
2022-07-28T16:19:51.888Z,1.15
2022-07-28T16:22:20.132Z,0.60
2022-07-28T16:24:48.475Z,0.63
2022-07-28T16:27:15.774Z,0.57
2022-07-28T16:29:44.794Z,1.05
2022-07-28T16:32:12.319Z,0.40
2022-07-28T16:34:39.938Z,0.40
2022-07-28T16:37:07.129Z,0.95
2022-07-28T16:39:34.727Z,0.43
2022-07-28T16:42:02.689Z,0.50
2022-07-28T16:44:30.094Z,0.40
2022-07-28T16:46:57.997Z,0.45
2022-07-28T16:49:25.204Z,0.30
2022-07-28T16:51:53.071Z,0.32
2022-07-28T16:54:20.576Z,0.60
2022-07-28T16:56:48.214Z,0.40
2022-07-28T16:59:15.547Z,0.43
2022-07-28T17:01:46.306Z,0.80
2022-07-28T17:04:17.456Z,0.50
2022-07-28T17:06:46.132Z,0.30
2022-07-28T17:09:15.728Z,0.40
2022-07-28T17:11:43.215Z,0.57
2022-07-28T17:14:11.517Z,0.60
2022-07-28T17:16:38.825Z,0.50
2022-07-28T17:19:05.761Z,0.60
2022-07-28T17:21:32.724Z,0.40
2022-07-28T17:23:59.856Z,1.33
2022-07-28T17:27:32.404Z,0.32
2022-07-28T17:29:13.985Z,0.60
2022-07-28T17:31:43.244Z,0.55
2022-07-28T17:34:13.304Z,0.52
2022-07-28T17:36:41.324Z,0.25
2022-07-28T17:39:11.445Z,0.40
2022-07-28T17:41:39.045Z,0.57
2022-07-28T17:44:06.425Z,0.40
2022-07-28T17:46:35.067Z,0.80
2022-07-28T17:49:03.394Z,0.45
2022-07-28T17:51:30.801Z,0.30
2022-07-28T17:53:58.002Z,0.30
2022-07-28T17:56:25.560Z,0.80
2022-07-28T17:58:52.996Z,0.50
2022-07-28T18:01:20.148Z,0.40
2022-07-28T18:03:59.467Z,0.45
2022-07-28T18:06:35.400Z,0.40
2022-07-28T18:09:10.756Z,0.30
2022-07-28T18:11:57.883Z,0.30
2022-07-28T18:14:30.614Z,0.38
2022-07-28T18:17:03.696Z,0.50
2022-07-28T18:19:31.993Z,0.60
2022-07-28T18:22:05.163Z,0.40
2022-07-28T18:24:32.065Z,0.50
2022-07-28T18:26:59.240Z,0.40
2022-07-28T18:29:37.809Z,0.40
2022-07-28T18:32:07.768Z,0.35
2022-07-28T18:34:40.561Z,0.40
2022-07-28T18:37:10.040Z,0.98
2022-07-28T18:39:37.049Z,0.40
2022-07-28T18:42:04.310Z,0.30
2022-07-28T18:44:31.320Z,0.40
2022-07-28T18:47:01.894Z,0.65
2022-07-28T18:49:37.668Z,0.52
2022-07-28T18:52:06.126Z,0.50
2022-07-28T18:54:33.257Z,1.05
2022-07-28T18:57:02.969Z,0.50
2022-07-28T18:59:37.781Z,0.65
2022-07-28T19:02:40.808Z,0.75
2022-07-28T19:05:07.060Z,0.73
2022-07-28T19:07:34.169Z,0.63
2022-07-28T19:10:02.019Z,0.60
2022-07-28T19:12:31.197Z,0.40
2022-07-28T19:14:58.842Z,0.70
2022-07-28T19:17:26.526Z,0.70
2022-07-28T19:19:56.264Z,0.50
2022-07-28T19:22:24.063Z,0.35
2022-07-28T19:24:52.544Z,0.32
2022-07-28T19:27:32.977Z,0.55
2022-07-28T19:29:59.896Z,1.10
2022-07-28T19:32:26.838Z,1.00
2022-07-28T19:34:56.661Z,0.70
2022-07-28T19:37:23.745Z,0.60
2022-07-28T19:39:50.665Z,1.88
2022-07-28T19:42:20.160Z,0.70
2022-07-28T19:44:47.309Z,0.45
2022-07-28T19:47:14.365Z,1.40
2022-07-28T19:49:41.318Z,0.50
2022-07-28T19:52:08.700Z,0.60
2022-07-28T19:54:35.659Z,0.60
2022-07-28T19:57:02.570Z,0.80
2022-07-28T19:59:37.644Z,0.82
2022-07-28T20:02:04.659Z,0.60
2022-07-28T20:04:31.684Z,0.68
2022-07-28T20:07:04.111Z,0.40
2022-07-28T20:09:31.089Z,0.60
2022-07-28T20:11:58.068Z,0.82
2022-07-28T20:14:27.571Z,0.50
2022-07-28T20:16:55.929Z,0.80
2022-07-28T20:19:23.014Z,0.50
2022-07-28T20:21:50.116Z,0.68
2022-07-28T20:24:19.971Z,0.50
2022-07-28T20:26:47.420Z,1.13
2022-07-28T20:29:14.592Z,0.50
2022-07-28T20:31:41.625Z,0.60
2022-07-28T20:34:12.611Z,0.50
2022-07-28T20:36:42.108Z,0.40
2022-07-28T20:39:27.910Z,0.70
2022-07-28T20:41:55.949Z,0.70
2022-07-28T20:44:30.597Z,0.75
2022-07-28T20:47:01.191Z,0.55
2022-07-28T20:49:29.735Z,1.45
2022-07-28T20:51:59.841Z,0.80
2022-07-28T20:54:26.921Z,0.82
2022-07-28T20:56:53.883Z,0.77
2022-07-28T20:59:20.921Z,0.50
2022-07-28T21:01:47.950Z,0.80
2022-07-28T21:04:15.734Z,0.55
2022-07-28T21:06:51.206Z,0.50
2022-07-28T21:09:19.906Z,0.80
2022-07-28T21:11:47.062Z,0.70
2022-07-28T21:14:17.371Z,0.50
2022-07-28T21:16:44.677Z,0.45
2022-07-28T21:19:11.823Z,0.57
2022-07-28T21:21:39.426Z,0.57
2022-07-28T21:24:10.218Z,0.70
2022-07-28T21:26:37.192Z,0.73
2022-07-28T21:32:02.273Z,0.77
2022-07-28T21:34:34.391Z,0.75
2022-07-28T21:37:03.413Z,1.13
2022-07-28T21:39:31.264Z,0.70
2022-07-28T21:41:58.470Z,0.75
2022-07-28T21:44:25.619Z,1.17
2022-07-28T21:46:52.520Z,0.90
2022-07-28T21:49:19.502Z,0.63
2022-07-28T21:51:47.216Z,0.57
2022-07-28T21:54:14.433Z,0.70
2022-07-28T21:56:41.595Z,1.10
2022-07-28T21:59:08.681Z,0.63
2022-07-28T22:01:35.643Z,1.98
2022-07-28T22:04:03.529Z,1.00
2022-07-28T22:06:30.521Z,1.05
2022-07-28T22:08:57.633Z,0.75
2022-07-28T22:11:24.628Z,0.80
2022-07-28T22:13:51.581Z,0.75
2022-07-28T22:16:18.533Z,0.63
2022-07-28T22:18:45.722Z,0.70
2022-07-28T22:21:12.653Z,0.85
2022-07-28T22:23:41.793Z,0.63
2022-07-28T22:26:08.734Z,1.08
2022-07-28T22:28:35.654Z,0.60
2022-07-28T22:31:08.576Z,1.00
2022-07-28T22:33:38.370Z,0.63
2022-07-28T22:36:09.013Z,1.02
2022-07-28T22:38:37.074Z,0.60
2022-07-28T22:41:04.314Z,0.60
2022-07-28T22:43:33.486Z,0.60
2022-07-28T22:46:00.786Z,0.80
2022-07-28T22:48:28.360Z,1.00
2022-07-28T22:50:55.511Z,0.88
2022-07-28T22:53:22.922Z,0.70
2022-07-28T22:58:34.242Z,0.60
2022-07-28T23:01:02.723Z,0.75
2022-07-28T23:03:30.977Z,0.70
2022-07-28T23:05:59.966Z,0.68
2022-07-28T23:08:27.826Z,0.80
2022-07-28T23:10:55.310Z,1.42
2022-07-28T23:13:22.302Z,0.70
2022-07-28T23:15:50.426Z,0.70
2022-07-28T23:18:17.615Z,0.63
2022-07-28T23:20:45.075Z,0.77
2022-07-28T23:23:12.539Z,1.88
2022-07-28T23:25:42.747Z,0.75
2022-07-28T23:28:11.115Z,0.60
2022-07-28T23:30:38.373Z,0.60
2022-07-28T23:33:05.631Z,1.10
2022-07-28T23:35:35.759Z,0.98
2022-07-28T23:38:03.076Z,0.90
2022-07-28T23:40:30.307Z,0.60
2022-07-28T23:42:57.440Z,0.68
2022-07-28T23:45:24.643Z,1.67
2022-07-28T23:47:56.465Z,0.85
2022-07-28T23:50:26.505Z,1.05
2022-07-28T23:52:53.569Z,1.15
2022-07-28T23:55:20.684Z,0.75
2022-07-28T23:57:47.653Z,0.90
